Terminal Aerodrome Forecast
Issued by NWS

Home | Current Version | Previous Version | Graphics & Text | Print | Product List | Glossary On
Versions: 1 2 3 4 5 6 7 8 9 10 11 12 13 14 15 16 17 18 19 20 21 22 23 24 25 26 27 28 29 30 31 32 33 34 35 36 37 38 39 40 41 42 43
000
FTUS43 KGRB 061133
TAFRHI
TAF
KRHI 061133Z 0612/0712 18005KT 6SM BR SCT035 OVC070 WS010/23035KT
      TEMPO 0612/0616 36010G20KT 2SM TSRA BR BKN020CB
     FM061600 19010KT P6SM SCT025 OVC050
      TEMPO 0619/0623 1SM +TSRA OVC012CB
     FM062300 VRB03KT 5SM SHRA BR SCT011 BKN025
     FM070200 35008KT 6SM -SHRA BKN011 OVC020
     FM070500 36010KT P6SM SCT014 OVC030=

USA.gov is the U.S. government's official web portal to all federal, state and local government web resources and services.